sensor_id;sensor_type;location;lat;lon;timestamp;P1;durP1;ratioP1;P2;durP2;ratioP2
70953;SDS011;58618;47.490;8.736;2023-08-17T00:02:25;5.82;;;3.80;;
70953;SDS011;58618;47.490;8.736;2023-08-17T00:05:12;6.82;;;3.80;;
70953;SDS011;58618;47.490;8.736;2023-08-17T00:08:01;5.93;;;3.85;;
70953;SDS011;58618;47.490;8.736;2023-08-17T00:10:48;7.40;;;3.90;;
70953;SDS011;58618;47.490;8.736;2023-08-17T00:13:35;6.70;;;4.20;;
70953;SDS011;58618;47.490;8.736;2023-08-17T00:16:23;5.50;;;4.13;;
70953;SDS011;58618;47.490;8.736;2023-08-17T00:19:10;7.35;;;4.28;;
70953;SDS011;58618;47.490;8.736;2023-08-17T00:21:57;6.93;;;4.45;;
70953;SDS011;58618;47.490;8.736;2023-08-17T00:24:46;5.83;;;4.20;;
70953;SDS011;58618;47.490;8.736;2023-08-17T00:27:33;7.60;;;4.53;;
70953;SDS011;58618;47.490;8.736;2023-08-17T00:30:21;4.55;;;3.28;;
70953;SDS011;58618;47.490;8.736;2023-08-17T00:33:08;6.95;;;3.17;;
70953;SDS011;58618;47.490;8.736;2023-08-17T00:35:56;6.07;;;4.00;;
70953;SDS011;58618;47.490;8.736;2023-08-17T00:38:43;9.13;;;4.90;;
70953;SDS011;58618;47.490;8.736;2023-08-17T00:41:32;8.70;;;5.07;;
70953;SDS011;58618;47.490;8.736;2023-08-17T00:44:19;6.97;;;4.28;;
70953;SDS011;58618;47.490;8.736;2023-08-17T00:47:06;5.47;;;3.70;;
70953;SDS011;58618;47.490;8.736;2023-08-17T00:49:54;5.50;;;3.63;;
70953;SDS011;58618;47.490;8.736;2023-08-17T00:52:43;5.50;;;3.60;;
70953;SDS011;58618;47.490;8.736;2023-08-17T00:55:30;4.93;;;3.80;;
70953;SDS011;58618;47.490;8.736;2023-08-17T00:58:19;5.25;;;3.55;;
70953;SDS011;58618;47.490;8.736;2023-08-17T01:01:07;6.82;;;3.30;;
70953;SDS011;58618;47.490;8.736;2023-08-17T01:03:54;6.15;;;3.30;;
70953;SDS011;58618;47.490;8.736;2023-08-17T01:06:42;4.97;;;3.33;;
70953;SDS011;58618;47.490;8.736;2023-08-17T01:09:29;4.22;;;3.22;;
70953;SDS011;58618;47.490;8.736;2023-08-17T01:12:17;5.97;;;3.63;;
70953;SDS011;58618;47.490;8.736;2023-08-17T01:15:14;4.95;;;3.10;;
70953;SDS011;58618;47.490;8.736;2023-08-17T01:18:07;6.28;;;3.42;;
70953;SDS011;58618;47.490;8.736;2023-08-17T01:21:02;5.67;;;3.50;;
70953;SDS011;58618;47.490;8.736;2023-08-17T01:23:57;4.40;;;3.40;;
70953;SDS011;58618;47.490;8.736;2023-08-17T01:26:44;7.32;;;3.35;;
70953;SDS011;58618;47.490;8.736;2023-08-17T01:29:32;4.95;;;3.63;;
70953;SDS011;58618;47.490;8.736;2023-08-17T01:32:23;9.38;;;4.10;;
70953;SDS011;58618;47.490;8.736;2023-08-17T01:35:18;7.30;;;4.17;;
70953;SDS011;58618;47.490;8.736;2023-08-17T01:38:12;4.75;;;3.78;;
70953;SDS011;58618;47.490;8.736;2023-08-17T01:41:05;6.03;;;4.22;;
70953;SDS011;58618;47.490;8.736;2023-08-17T01:43:54;5.72;;;4.07;;
70953;SDS011;58618;47.490;8.736;2023-08-17T01:46:41;5.90;;;4.30;;
70953;SDS011;58618;47.490;8.736;2023-08-17T01:49:29;6.30;;;4.20;;
70953;SDS011;58618;47.490;8.736;2023-08-17T01:52:16;5.65;;;4.20;;
70953;SDS011;58618;47.490;8.736;2023-08-17T01:55:04;6.78;;;4.50;;
70953;SDS011;58618;47.490;8.736;2023-08-17T01:57:53;7.75;;;4.53;;
70953;SDS011;58618;47.490;8.736;2023-08-17T02:00:40;8.65;;;4.68;;
70953;SDS011;58618;47.490;8.736;2023-08-17T02:03:28;7.03;;;4.80;;
70953;SDS011;58618;47.490;8.736;2023-08-17T02:06:15;7.15;;;4.75;;
70953;SDS011;58618;47.490;8.736;2023-08-17T02:09:03;5.63;;;4.60;;
70953;SDS011;58618;47.490;8.736;2023-08-17T02:11:50;9.35;;;4.95;;
70953;SDS011;58618;47.490;8.736;2023-08-17T02:14:39;10.23;;;5.03;;
70953;SDS011;58618;47.490;8.736;2023-08-17T02:17:26;9.30;;;4.87;;
70953;SDS011;58618;47.490;8.736;2023-08-17T02:20:13;6.53;;;4.75;;
70953;SDS011;58618;47.490;8.736;2023-08-17T02:23:01;11.18;;;5.32;;
70953;SDS011;58618;47.490;8.736;2023-08-17T02:25:48;7.82;;;5.10;;
70953;SDS011;58618;47.490;8.736;2023-08-17T02:28:36;7.32;;;5.03;;
70953;SDS011;58618;47.490;8.736;2023-08-17T02:31:24;7.03;;;4.60;;
70953;SDS011;58618;47.490;8.736;2023-08-17T02:34:11;7.45;;;4.93;;
70953;SDS011;58618;47.490;8.736;2023-08-17T02:36:59;10.77;;;5.40;;
70953;SDS011;58618;47.490;8.736;2023-08-17T02:39:46;6.03;;;4.75;;
70953;SDS011;58618;47.490;8.736;2023-08-17T02:42:33;5.88;;;4.93;;
70953;SDS011;58618;47.490;8.736;2023-08-17T02:45:21;6.37;;;5.00;;
70953;SDS011;58618;47.490;8.736;2023-08-17T02:48:09;8.05;;;5.07;;
70953;SDS011;58618;47.490;8.736;2023-08-17T02:50:56;6.50;;;5.13;;
70953;SDS011;58618;47.490;8.736;2023-08-17T02:53:44;6.88;;;4.95;;
70953;SDS011;58618;47.490;8.736;2023-08-17T02:56:31;6.25;;;4.82;;
70953;SDS011;58618;47.490;8.736;2023-08-17T02:59:18;8.67;;;4.60;;
70953;SDS011;58618;47.490;8.736;2023-08-17T03:02:06;6.40;;;4.80;;
70953;SDS011;58618;47.490;8.736;2023-08-17T03:04:54;7.80;;;5.43;;
70953;SDS011;58618;47.490;8.736;2023-08-17T03:07:42;7.78;;;5.32;;
70953;SDS011;58618;47.490;8.736;2023-08-17T03:10:29;7.50;;;5.03;;
70953;SDS011;58618;47.490;8.736;2023-08-17T03:13:16;8.53;;;5.13;;
70953;SDS011;58618;47.490;8.736;2023-08-17T03:16:04;9.30;;;5.10;;
70953;SDS011;58618;47.490;8.736;2023-08-17T03:18:51;5.95;;;5.18;;
70953;SDS011;58618;47.490;8.736;2023-08-17T03:21:39;5.60;;;4.50;;
70953;SDS011;58618;47.490;8.736;2023-08-17T03:24:27;6.20;;;4.90;;
70953;SDS011;58618;47.490;8.736;2023-08-17T03:27:14;5.30;;;4.80;;
70953;SDS011;58618;47.490;8.736;2023-08-17T03:30:01;7.72;;;5.10;;
70953;SDS011;58618;47.490;8.736;2023-08-17T03:32:49;10.57;;;4.90;;
70953;SDS011;58618;47.490;8.736;2023-08-17T03:35:37;8.48;;;5.20;;
70953;SDS011;58618;47.490;8.736;2023-08-17T03:38:25;7.13;;;5.25;;
70953;SDS011;58618;47.490;8.736;2023-08-17T03:41:13;6.40;;;5.20;;
70953;SDS011;58618;47.490;8.736;2023-08-17T03:44:00;6.68;;;4.70;;
70953;SDS011;58618;47.490;8.736;2023-08-17T03:46:47;7.28;;;4.60;;
70953;SDS011;58618;47.490;8.736;2023-08-17T03:49:34;4.70;;;3.85;;
70953;SDS011;58618;47.490;8.736;2023-08-17T03:52:22;5.53;;;4.07;;
70953;SDS011;58618;47.490;8.736;2023-08-17T03:55:10;4.67;;;3.60;;
70953;SDS011;58618;47.490;8.736;2023-08-17T03:57:58;4.97;;;3.80;;
70953;SDS011;58618;47.490;8.736;2023-08-17T04:00:48;5.55;;;3.97;;
70953;SDS011;58618;47.490;8.736;2023-08-17T04:03:36;5.45;;;3.92;;
70953;SDS011;58618;47.490;8.736;2023-08-17T04:06:23;6.03;;;3.70;;
70953;SDS011;58618;47.490;8.736;2023-08-17T04:09:10;6.33;;;3.87;;
70953;SDS011;58618;47.490;8.736;2023-08-17T04:11:59;5.90;;;3.60;;
70953;SDS011;58618;47.490;8.736;2023-08-17T04:14:46;4.13;;;3.30;;
70953;SDS011;58618;47.490;8.736;2023-08-17T04:17:34;5.85;;;3.60;;
70953;SDS011;58618;47.490;8.736;2023-08-17T04:20:21;6.38;;;4.13;;
70953;SDS011;58618;47.490;8.736;2023-08-17T04:23:08;5.93;;;3.50;;
70953;SDS011;58618;47.490;8.736;2023-08-17T04:25:55;8.35;;;3.67;;
70953;SDS011;58618;47.490;8.736;2023-08-17T04:28:44;5.53;;;3.78;;
70953;SDS011;58618;47.490;8.736;2023-08-17T04:31:31;4.63;;;3.80;;
70953;SDS011;58618;47.490;8.736;2023-08-17T04:34:19;7.13;;;3.70;;
70953;SDS011;58618;47.490;8.736;2023-08-17T04:37:06;6.23;;;3.93;;
70953;SDS011;58618;47.490;8.736;2023-08-17T04:39:54;5.25;;;3.53;;
70953;SDS011;58618;47.490;8.736;2023-08-17T04:42:41;3.85;;;3.33;;
70953;SDS011;58618;47.490;8.736;2023-08-17T04:45:30;6.38;;;3.90;;
70953;SDS011;58618;47.490;8.736;2023-08-17T04:48:17;5.38;;;3.40;;
70953;SDS011;58618;47.490;8.736;2023-08-17T04:51:04;7.03;;;3.60;;
70953;SDS011;58618;47.490;8.736;2023-08-17T04:53:52;5.68;;;3.60;;
70953;SDS011;58618;47.490;8.736;2023-08-17T04:56:39;9.20;;;3.70;;
70953;SDS011;58618;47.490;8.736;2023-08-17T04:59:26;5.03;;;3.45;;
70953;SDS011;58618;47.490;8.736;2023-08-17T05:02:17;4.55;;;3.58;;
70953;SDS011;58618;47.490;8.736;2023-08-17T05:05:04;10.73;;;3.80;;
70953;SDS011;58618;47.490;8.736;2023-08-17T05:07:52;6.05;;;3.92;;
70953;SDS011;58618;47.490;8.736;2023-08-17T05:10:40;8.27;;;4.25;;
70953;SDS011;58618;47.490;8.736;2023-08-17T05:13:27;6.40;;;4.28;;
70953;SDS011;58618;47.490;8.736;2023-08-17T05:16:14;6.82;;;4.03;;
70953;SDS011;58618;47.490;8.736;2023-08-17T05:19:03;6.67;;;3.90;;
70953;SDS011;58618;47.490;8.736;2023-08-17T05:21:51;6.97;;;3.95;;
70953;SDS011;58618;47.490;8.736;2023-08-17T05:24:39;6.43;;;3.90;;
70953;SDS011;58618;47.490;8.736;2023-08-17T05:27:27;5.93;;;3.63;;
70953;SDS011;58618;47.490;8.736;2023-08-17T05:30:14;5.43;;;4.10;;
70953;SDS011;58618;47.490;8.736;2023-08-17T05:33:01;6.20;;;3.93;;
70953;SDS011;58618;47.490;8.736;2023-08-17T05:35:54;6.78;;;3.55;;
70953;SDS011;58618;47.490;8.736;2023-08-17T05:38:41;4.97;;;3.40;;
70953;SDS011;58618;47.490;8.736;2023-08-17T05:41:28;4.70;;;3.10;;
70953;SDS011;58618;47.490;8.736;2023-08-17T05:44:16;7.07;;;3.08;;
70953;SDS011;58618;47.490;8.736;2023-08-17T05:47:03;5.23;;;3.23;;
70953;SDS011;58618;47.490;8.736;2023-08-17T05:49:50;4.50;;;3.60;;
70953;SDS011;58618;47.490;8.736;2023-08-17T05:52:39;5.38;;;3.47;;
70953;SDS011;58618;47.490;8.736;2023-08-17T05:55:27;6.85;;;3.28;;
70953;SDS011;58618;47.490;8.736;2023-08-17T05:58:15;4.93;;;3.20;;
70953;SDS011;58618;47.490;8.736;2023-08-17T06:01:05;5.23;;;3.07;;
70953;SDS011;58618;47.490;8.736;2023-08-17T06:03:53;5.65;;;2.80;;
70953;SDS011;58618;47.490;8.736;2023-08-17T06:06:40;4.38;;;3.15;;
70953;SDS011;58618;47.490;8.736;2023-08-17T06:09:29;5.07;;;2.90;;
70953;SDS011;58618;47.490;8.736;2023-08-17T06:12:16;4.68;;;2.67;;
70953;SDS011;58618;47.490;8.736;2023-08-17T06:15:05;4.33;;;2.77;;
70953;SDS011;58618;47.490;8.736;2023-08-17T06:17:53;6.72;;;2.80;;
70953;SDS011;58618;47.490;8.736;2023-08-17T06:20:40;4.50;;;2.80;;
70953;SDS011;58618;47.490;8.736;2023-08-17T06:23:28;6.18;;;2.65;;
70953;SDS011;58618;47.490;8.736;2023-08-17T06:26:16;5.40;;;2.70;;
70953;SDS011;58618;47.490;8.736;2023-08-17T06:29:03;4.03;;;2.70;;
70953;SDS011;58618;47.490;8.736;2023-08-17T06:31:51;5.22;;;2.90;;
70953;SDS011;58618;47.490;8.736;2023-08-17T06:34:38;4.63;;;3.13;;
70953;SDS011;58618;47.490;8.736;2023-08-17T06:37:26;4.90;;;2.88;;
70953;SDS011;58618;47.490;8.736;2023-08-17T06:40:13;3.22;;;2.80;;
70953;SDS011;58618;47.490;8.736;2023-08-17T06:43:02;5.00;;;2.43;;
70953;SDS011;58618;47.490;8.736;2023-08-17T06:45:49;4.65;;;2.60;;
70953;SDS011;58618;47.490;8.736;2023-08-17T06:48:36;3.67;;;2.80;;
70953;SDS011;58618;47.490;8.736;2023-08-17T06:51:24;5.43;;;2.80;;
70953;SDS011;58618;47.490;8.736;2023-08-17T06:54:11;4.00;;;2.80;;
70953;SDS011;58618;47.490;8.736;2023-08-17T06:56:58;8.20;;;3.00;;
70953;SDS011;58618;47.490;8.736;2023-08-17T06:59:47;5.03;;;2.58;;
70953;SDS011;58618;47.490;8.736;2023-08-17T07:02:34;4.25;;;2.83;;
70953;SDS011;58618;47.490;8.736;2023-08-17T07:05:22;4.97;;;3.17;;
70953;SDS011;58618;47.490;8.736;2023-08-17T07:08:09;5.40;;;3.30;;
70953;SDS011;58618;47.490;8.736;2023-08-17T07:10:57;7.30;;;3.10;;
70953;SDS011;58618;47.490;8.736;2023-08-17T07:13:47;4.85;;;3.08;;
70953;SDS011;58618;47.490;8.736;2023-08-17T07:16:36;5.35;;;2.92;;
70953;SDS011;58618;47.490;8.736;2023-08-17T07:19:23;5.32;;;3.03;;
70953;SDS011;58618;47.490;8.736;2023-08-17T07:22:11;2.88;;;2.50;;
70953;SDS011;58618;47.490;8.736;2023-08-17T07:24:58;5.87;;;2.97;;
70953;SDS011;58618;47.490;8.736;2023-08-17T07:27:45;5.82;;;2.75;;
70953;SDS011;58618;47.490;8.736;2023-08-17T07:30:33;5.20;;;2.80;;
70953;SDS011;58618;47.490;8.736;2023-08-17T07:33:21;6.13;;;2.63;;
70953;SDS011;58618;47.490;8.736;2023-08-17T07:36:08;4.05;;;2.80;;
70953;SDS011;58618;47.490;8.736;2023-08-17T07:38:56;3.47;;;2.33;;
70953;SDS011;58618;47.490;8.736;2023-08-17T07:41:43;6.63;;;2.63;;
70953;SDS011;58618;47.490;8.736;2023-08-17T07:44:30;4.43;;;2.47;;
70953;SDS011;58618;47.490;8.736;2023-08-17T07:47:19;4.88;;;2.80;;
70953;SDS011;58618;47.490;8.736;2023-08-17T07:50:08;3.60;;;2.70;;
70953;SDS011;58618;47.490;8.736;2023-08-17T07:52:55;5.53;;;2.70;;
70953;SDS011;58618;47.490;8.736;2023-08-17T07:55:42;7.13;;;2.83;;
70953;SDS011;58618;47.490;8.736;2023-08-17T07:58:30;5.45;;;2.70;;
70953;SDS011;58618;47.490;8.736;2023-08-17T08:01:17;5.10;;;3.10;;
70953;SDS011;58618;47.490;8.736;2023-08-17T08:04:05;4.40;;;2.97;;
70953;SDS011;58618;47.490;8.736;2023-08-17T08:06:54;5.13;;;2.83;;
70953;SDS011;58618;47.490;8.736;2023-08-17T08:09:41;4.90;;;3.00;;
70953;SDS011;58618;47.490;8.736;2023-08-17T08:12:28;6.05;;;3.17;;
70953;SDS011;58618;47.490;8.736;2023-08-17T08:15:16;4.60;;;2.85;;
70953;SDS011;58618;47.490;8.736;2023-08-17T08:18:03;6.18;;;3.13;;
70953;SDS011;58618;47.490;8.736;2023-08-17T08:20:51;5.53;;;3.00;;
70953;SDS011;58618;47.490;8.736;2023-08-17T08:23:42;2.70;;;2.35;;
70953;SDS011;58618;47.490;8.736;2023-08-17T08:26:29;5.00;;;2.63;;
70953;SDS011;58618;47.490;8.736;2023-08-17T08:29:17;4.25;;;2.70;;
70953;SDS011;58618;47.490;8.736;2023-08-17T08:32:04;4.28;;;2.97;;
70953;SDS011;58618;47.490;8.736;2023-08-17T08:34:51;5.83;;;2.80;;
70953;SDS011;58618;47.490;8.736;2023-08-17T08:37:39;5.00;;;3.15;;
70953;SDS011;58618;47.490;8.736;2023-08-17T08:40:28;4.05;;;2.47;;
70953;SDS011;58618;47.490;8.736;2023-08-17T08:43:16;5.53;;;2.67;;
70953;SDS011;58618;47.490;8.736;2023-08-17T08:46:04;7.45;;;2.83;;
70953;SDS011;58618;47.490;8.736;2023-08-17T08:48:52;5.00;;;2.90;;
70953;SDS011;58618;47.490;8.736;2023-08-17T08:51:41;4.88;;;2.97;;
70953;SDS011;58618;47.490;8.736;2023-08-17T08:54:31;3.53;;;2.20;;
70953;SDS011;58618;47.490;8.736;2023-08-17T08:57:22;3.45;;;2.40;;
70953;SDS011;58618;47.490;8.736;2023-08-17T09:00:11;4.60;;;2.20;;
70953;SDS011;58618;47.490;8.736;2023-08-17T09:02:59;3.53;;;2.00;;
70953;SDS011;58618;47.490;8.736;2023-08-17T09:05:49;5.30;;;2.60;;
70953;SDS011;58618;47.490;8.736;2023-08-17T09:08:38;3.78;;;2.30;;
70953;SDS011;58618;47.490;8.736;2023-08-17T09:11:25;4.75;;;2.20;;
70953;SDS011;58618;47.490;8.736;2023-08-17T09:14:14;4.63;;;2.40;;
70953;SDS011;58618;47.490;8.736;2023-08-17T09:17:01;3.30;;;2.40;;
70953;SDS011;58618;47.490;8.736;2023-08-17T09:19:49;3.13;;;2.40;;
70953;SDS011;58618;47.490;8.736;2023-08-17T09:22:37;4.68;;;2.10;;
70953;SDS011;58618;47.490;8.736;2023-08-17T09:25:25;5.22;;;2.40;;
70953;SDS011;58618;47.490;8.736;2023-08-17T09:28:14;4.07;;;2.55;;
70953;SDS011;58618;47.490;8.736;2023-08-17T09:31:03;5.13;;;2.50;;
70953;SDS011;58618;47.490;8.736;2023-08-17T09:33:51;3.38;;;2.63;;
70953;SDS011;58618;47.490;8.736;2023-08-17T09:36:38;5.97;;;2.65;;
70953;SDS011;58618;47.490;8.736;2023-08-17T09:39:26;3.95;;;2.90;;
70953;SDS011;58618;47.490;8.736;2023-08-17T09:42:14;4.65;;;3.05;;
70953;SDS011;58618;47.490;8.736;2023-08-17T09:45:02;4.57;;;2.80;;
70953;SDS011;58618;47.490;8.736;2023-08-17T09:47:51;4.70;;;3.08;;
70953;SDS011;58618;47.490;8.736;2023-08-17T09:50:38;6.80;;;3.30;;
70953;SDS011;58618;47.490;8.736;2023-08-17T09:53:26;5.85;;;3.78;;
70953;SDS011;58618;47.490;8.736;2023-08-17T09:56:13;5.07;;;3.60;;
70953;SDS011;58618;47.490;8.736;2023-08-17T09:59:00;7.03;;;4.00;;
70953;SDS011;58618;47.490;8.736;2023-08-17T10:01:48;7.45;;;4.07;;
70953;SDS011;58618;47.490;8.736;2023-08-17T10:04:37;6.05;;;4.05;;
70953;SDS011;58618;47.490;8.736;2023-08-17T10:07:30;9.85;;;4.20;;
70953;SDS011;58618;47.490;8.736;2023-08-17T10:10:20;6.45;;;3.83;;
70953;SDS011;58618;47.490;8.736;2023-08-17T10:13:12;8.73;;;4.40;;
70953;SDS011;58618;47.490;8.736;2023-08-17T10:16:09;6.35;;;3.90;;
70953;SDS011;58618;47.490;8.736;2023-08-17T10:19:07;7.55;;;4.07;;
70953;SDS011;58618;47.490;8.736;2023-08-17T10:22:05;10.68;;;4.68;;
70953;SDS011;58618;47.490;8.736;2023-08-17T10:24:58;5.00;;;4.30;;
70953;SDS011;58618;47.490;8.736;2023-08-17T10:27:47;8.40;;;4.83;;
70953;SDS011;58618;47.490;8.736;2023-08-17T10:30:37;6.38;;;4.30;;
70953;SDS011;58618;47.490;8.736;2023-08-17T10:33:25;7.90;;;4.40;;
70953;SDS011;58618;47.490;8.736;2023-08-17T10:36:13;6.97;;;4.40;;
70953;SDS011;58618;47.490;8.736;2023-08-17T10:39:19;7.88;;;4.60;;
70953;SDS011;58618;47.490;8.736;2023-08-17T10:42:07;7.50;;;4.70;;
70953;SDS011;58618;47.490;8.736;2023-08-17T10:44:55;6.05;;;4.75;;
70953;SDS011;58618;47.490;8.736;2023-08-17T10:47:42;8.15;;;5.00;;
70953;SDS011;58618;47.490;8.736;2023-08-17T10:50:29;6.93;;;4.80;;
70953;SDS011;58618;47.490;8.736;2023-08-17T10:53:17;7.18;;;4.95;;
70953;SDS011;58618;47.490;8.736;2023-08-17T10:56:10;8.70;;;4.83;;
70953;SDS011;58618;47.490;8.736;2023-08-17T10:59:00;7.53;;;5.00;;
70953;SDS011;58618;47.490;8.736;2023-08-17T11:01:47;8.95;;;4.85;;
70953;SDS011;58618;47.490;8.736;2023-08-17T11:04:38;6.63;;;4.90;;
70953;SDS011;58618;47.490;8.736;2023-08-17T11:07:26;6.60;;;4.97;;
70953;SDS011;58618;47.490;8.736;2023-08-17T11:10:28;9.30;;;5.00;;
70953;SDS011;58618;47.490;8.736;2023-08-17T11:13:17;5.70;;;4.63;;
70953;SDS011;58618;47.490;8.736;2023-08-17T11:16:05;9.98;;;4.88;;
70953;SDS011;58618;47.490;8.736;2023-08-17T11:18:54;5.78;;;4.57;;
70953;SDS011;58618;47.490;8.736;2023-08-17T11:21:44;9.80;;;4.88;;
70953;SDS011;58618;47.490;8.736;2023-08-17T11:24:32;10.27;;;4.63;;
70953;SDS011;58618;47.490;8.736;2023-08-17T11:27:25;8.63;;;5.05;;
70953;SDS011;58618;47.490;8.736;2023-08-17T11:30:14;7.57;;;4.57;;
70953;SDS011;58618;47.490;8.736;2023-08-17T11:33:02;15.95;;;5.20;;
70953;SDS011;58618;47.490;8.736;2023-08-17T11:35:50;7.53;;;5.10;;
70953;SDS011;58618;47.490;8.736;2023-08-17T11:38:39;9.67;;;5.13;;
70953;SDS011;58618;47.490;8.736;2023-08-17T11:41:28;8.32;;;4.78;;
70953;SDS011;58618;47.490;8.736;2023-08-17T11:44:15;5.68;;;4.32;;
70953;SDS011;58618;47.490;8.736;2023-08-17T11:47:04;6.65;;;4.40;;
70953;SDS011;58618;47.490;8.736;2023-08-17T11:49:58;7.97;;;4.40;;
70953;SDS011;58618;47.490;8.736;2023-08-17T11:52:46;7.27;;;4.60;;
70953;SDS011;58618;47.490;8.736;2023-08-17T11:55:33;5.70;;;4.18;;
70953;SDS011;58618;47.490;8.736;2023-08-17T11:58:31;6.07;;;4.50;;
70953;SDS011;58618;47.490;8.736;2023-08-17T12:01:23;7.47;;;4.72;;
70953;SDS011;58618;47.490;8.736;2023-08-17T12:04:12;9.13;;;4.28;;
70953;SDS011;58618;47.490;8.736;2023-08-17T12:06:59;8.97;;;4.57;;
70953;SDS011;58618;47.490;8.736;2023-08-17T12:09:47;7.50;;;4.20;;
70953;SDS011;58618;47.490;8.736;2023-08-17T12:12:36;7.55;;;4.50;;
70953;SDS011;58618;47.490;8.736;2023-08-17T12:15:29;6.93;;;3.60;;
70953;SDS011;58618;47.490;8.736;2023-08-17T12:18:17;5.15;;;3.50;;
70953;SDS011;58618;47.490;8.736;2023-08-17T12:21:10;5.67;;;3.53;;
70953;SDS011;58618;47.490;8.736;2023-08-17T12:23:57;7.22;;;3.65;;
70953;SDS011;58618;47.490;8.736;2023-08-17T12:26:46;7.45;;;4.18;;
70953;SDS011;58618;47.490;8.736;2023-08-17T12:29:34;8.65;;;3.90;;
70953;SDS011;58618;47.490;8.736;2023-08-17T12:32:32;7.50;;;3.85;;
70953;SDS011;58618;47.490;8.736;2023-08-17T12:35:19;6.87;;;3.60;;
70953;SDS011;58618;47.490;8.736;2023-08-17T12:38:11;6.45;;;4.07;;
70953;SDS011;58618;47.490;8.736;2023-08-17T12:40:58;5.32;;;3.63;;
70953;SDS011;58618;47.490;8.736;2023-08-17T12:43:45;4.38;;;3.97;;
70953;SDS011;58618;47.490;8.736;2023-08-17T12:46:33;6.63;;;4.03;;
70953;SDS011;58618;47.490;8.736;2023-08-17T12:49:20;6.50;;;4.00;;
70953;SDS011;58618;47.490;8.736;2023-08-17T12:52:08;6.50;;;4.13;;
70953;SDS011;58618;47.490;8.736;2023-08-17T12:54:57;6.95;;;3.95;;
70953;SDS011;58618;47.490;8.736;2023-08-17T12:57:44;8.38;;;3.97;;
70953;SDS011;58618;47.490;8.736;2023-08-17T13:00:32;6.88;;;4.10;;
70953;SDS011;58618;47.490;8.736;2023-08-17T13:03:19;8.93;;;4.60;;
70953;SDS011;58618;47.490;8.736;2023-08-17T13:06:07;7.45;;;4.18;;
70953;SDS011;58618;47.490;8.736;2023-08-17T13:08:54;7.43;;;4.20;;
70953;SDS011;58618;47.490;8.736;2023-08-17T13:11:43;8.13;;;4.10;;
70953;SDS011;58618;47.490;8.736;2023-08-17T13:14:30;7.80;;;4.70;;
70953;SDS011;58618;47.490;8.736;2023-08-17T13:17:17;9.70;;;4.60;;
70953;SDS011;58618;47.490;8.736;2023-08-17T13:20:05;7.68;;;4.60;;
70953;SDS011;58618;47.490;8.736;2023-08-17T13:22:54;5.78;;;4.60;;
70953;SDS011;58618;47.490;8.736;2023-08-17T13:25:41;7.68;;;4.85;;
70953;SDS011;58618;47.490;8.736;2023-08-17T13:28:30;5.90;;;4.82;;
70953;SDS011;58618;47.490;8.736;2023-08-17T13:31:18;6.43;;;5.03;;
70953;SDS011;58618;47.490;8.736;2023-08-17T13:34:05;17.77;;;5.57;;
70953;SDS011;58618;47.490;8.736;2023-08-17T13:36:52;7.10;;;4.50;;
70953;SDS011;58618;47.490;8.736;2023-08-17T13:39:39;7.28;;;3.90;;
70953;SDS011;58618;47.490;8.736;2023-08-17T13:42:27;7.07;;;4.10;;
70953;SDS011;58618;47.490;8.736;2023-08-17T13:45:16;6.23;;;4.10;;
70953;SDS011;58618;47.490;8.736;2023-08-17T13:48:03;6.10;;;3.53;;
70953;SDS011;58618;47.490;8.736;2023-08-17T13:50:51;7.88;;;3.60;;
70953;SDS011;58618;47.490;8.736;2023-08-17T13:53:38;9.68;;;3.22;;
70953;SDS011;58618;47.490;8.736;2023-08-17T13:56:26;7.07;;;3.30;;
70953;SDS011;58618;47.490;8.736;2023-08-17T13:59:13;7.60;;;3.60;;
70953;SDS011;58618;47.490;8.736;2023-08-17T14:02:02;7.97;;;3.50;;
70953;SDS011;58618;47.490;8.736;2023-08-17T14:04:49;5.78;;;3.65;;
70953;SDS011;58618;47.490;8.736;2023-08-17T14:07:37;5.13;;;3.60;;
70953;SDS011;58618;47.490;8.736;2023-08-17T14:10:24;8.65;;;4.00;;
70953;SDS011;58618;47.490;8.736;2023-08-17T14:13:11;8.13;;;4.30;;
70953;SDS011;58618;47.490;8.736;2023-08-17T14:15:58;9.05;;;3.95;;
70953;SDS011;58618;47.490;8.736;2023-08-17T14:18:47;5.30;;;3.90;;
70953;SDS011;58618;47.490;8.736;2023-08-17T14:21:34;9.38;;;4.07;;
70953;SDS011;58618;47.490;8.736;2023-08-17T14:24:22;8.07;;;3.80;;
70953;SDS011;58618;47.490;8.736;2023-08-17T14:27:09;5.20;;;3.83;;
70953;SDS011;58618;47.490;8.736;2023-08-17T14:29:56;8.93;;;4.20;;
70953;SDS011;58618;47.490;8.736;2023-08-17T14:32:47;5.80;;;3.80;;
70953;SDS011;58618;47.490;8.736;2023-08-17T14:35:35;5.70;;;4.13;;
70953;SDS011;58618;47.490;8.736;2023-08-17T14:38:22;8.55;;;4.13;;
70953;SDS011;58618;47.490;8.736;2023-08-17T14:41:10;6.77;;;3.90;;
70953;SDS011;58618;47.490;8.736;2023-08-17T14:43:57;6.57;;;4.05;;
70953;SDS011;58618;47.490;8.736;2023-08-17T14:46:45;5.15;;;3.70;;
70953;SDS011;58618;47.490;8.736;2023-08-17T14:49:32;6.68;;;3.70;;
70953;SDS011;58618;47.490;8.736;2023-08-17T14:52:21;7.03;;;4.10;;
70953;SDS011;58618;47.490;8.736;2023-08-17T14:55:08;6.63;;;3.87;;
70953;SDS011;58618;47.490;8.736;2023-08-17T14:57:55;6.18;;;3.78;;
70953;SDS011;58618;47.490;8.736;2023-08-17T15:00:43;5.40;;;3.65;;
70953;SDS011;58618;47.490;8.736;2023-08-17T15:03:30;6.82;;;3.80;;
70953;SDS011;58618;47.490;8.736;2023-08-17T15:06:17;7.00;;;3.78;;
70953;SDS011;58618;47.490;8.736;2023-08-17T15:09:10;4.87;;;3.50;;
70953;SDS011;58618;47.490;8.736;2023-08-17T15:11:58;7.10;;;3.45;;
70953;SDS011;58618;47.490;8.736;2023-08-17T15:14:45;5.85;;;3.53;;
70953;SDS011;58618;47.490;8.736;2023-08-17T15:17:32;4.57;;;3.20;;
70953;SDS011;58618;47.490;8.736;2023-08-17T15:20:19;6.53;;;3.55;;
70953;SDS011;58618;47.490;8.736;2023-08-17T15:23:07;5.03;;;3.10;;
70953;SDS011;58618;47.490;8.736;2023-08-17T15:25:55;6.25;;;2.92;;
70953;SDS011;58618;47.490;8.736;2023-08-17T15:28:43;6.50;;;2.90;;
70953;SDS011;58618;47.490;8.736;2023-08-17T15:31:30;4.65;;;2.95;;
70953;SDS011;58618;47.490;8.736;2023-08-17T15:34:17;5.55;;;2.63;;
70953;SDS011;58618;47.490;8.736;2023-08-17T15:37:05;6.87;;;2.97;;
70953;SDS011;58618;47.490;8.736;2023-08-17T15:39:53;7.45;;;2.70;;
70953;SDS011;58618;47.490;8.736;2023-08-17T15:42:41;4.85;;;2.42;;
70953;SDS011;58618;47.490;8.736;2023-08-17T15:45:29;6.00;;;2.20;;
70953;SDS011;58618;47.490;8.736;2023-08-17T15:48:16;6.00;;;2.28;;
70953;SDS011;58618;47.490;8.736;2023-08-17T15:51:03;6.10;;;2.33;;
70953;SDS011;58618;47.490;8.736;2023-08-17T15:53:50;6.18;;;2.30;;
70953;SDS011;58618;47.490;8.736;2023-08-17T15:56:38;5.40;;;2.42;;
70953;SDS011;58618;47.490;8.736;2023-08-17T15:59:26;5.63;;;2.30;;
70953;SDS011;58618;47.490;8.736;2023-08-17T16:02:14;5.82;;;2.20;;
70953;SDS011;58618;47.490;8.736;2023-08-17T16:05:01;4.87;;;2.07;;
70953;SDS011;58618;47.490;8.736;2023-08-17T16:07:48;5.88;;;2.38;;
70953;SDS011;58618;47.490;8.736;2023-08-17T16:10:36;4.20;;;2.25;;
70953;SDS011;58618;47.490;8.736;2023-08-17T16:13:23;4.70;;;2.58;;
70953;SDS011;58618;47.490;8.736;2023-08-17T16:16:11;4.18;;;1.90;;
70953;SDS011;58618;47.490;8.736;2023-08-17T16:18:59;4.27;;;1.90;;
70953;SDS011;58618;47.490;8.736;2023-08-17T16:21:46;4.40;;;2.05;;
70953;SDS011;58618;47.490;8.736;2023-08-17T16:24:33;4.00;;;1.95;;
70953;SDS011;58618;47.490;8.736;2023-08-17T16:27:21;6.38;;;1.85;;
70953;SDS011;58618;47.490;8.736;2023-08-17T16:30:08;6.20;;;2.00;;
70953;SDS011;58618;47.490;8.736;2023-08-17T16:32:58;6.07;;;1.90;;
70953;SDS011;58618;47.490;8.736;2023-08-17T16:35:45;5.10;;;1.50;;
70953;SDS011;58618;47.490;8.736;2023-08-17T16:38:32;5.47;;;2.10;;
70953;SDS011;58618;47.490;8.736;2023-08-17T16:41:20;3.15;;;1.77;;
70953;SDS011;58618;47.490;8.736;2023-08-17T16:44:07;4.32;;;1.67;;
70953;SDS011;58618;47.490;8.736;2023-08-17T16:46:54;4.80;;;1.50;;
70953;SDS011;58618;47.490;8.736;2023-08-17T16:49:43;4.93;;;1.60;;
70953;SDS011;58618;47.490;8.736;2023-08-17T16:52:30;4.35;;;1.40;;
70953;SDS011;58618;47.490;8.736;2023-08-17T16:55:18;4.38;;;2.10;;